createdAt,value
2018-05-04T00:00:19.717Z,9.91
2018-05-04T00:02:47.139Z,9.88
2018-05-04T00:05:14.545Z,9.82
2018-05-04T00:07:41.957Z,9.75
2018-05-04T00:10:09.367Z,9.70
2018-05-04T00:12:36.776Z,9.61
2018-05-04T00:15:04.196Z,9.49
2018-05-04T00:17:31.592Z,9.33
2018-05-04T00:19:59.023Z,9.34
2018-05-04T00:22:26.420Z,9.37
2018-05-04T00:24:53.845Z,9.39
2018-05-04T00:27:21.239Z,9.29
2018-05-04T00:29:48.664Z,9.19
2018-05-04T00:32:16.064Z,9.19
2018-05-04T00:34:43.848Z,9.22
2018-05-04T00:37:11.248Z,9.25
2018-05-04T00:39:38.664Z,9.26
2018-05-04T00:42:06.081Z,9.26
2018-05-04T00:44:33.483Z,9.24
2018-05-04T00:47:00.899Z,9.24
2018-05-04T00:49:28.295Z,9.16
2018-05-04T00:51:55.719Z,9.13
2018-05-04T00:54:24.024Z,9.11
2018-05-04T00:56:51.428Z,9.08
2018-05-04T00:59:19.100Z,9.07
2018-05-04T01:01:46.508Z,9.07
2018-05-04T01:04:13.909Z,9.02
2018-05-04T01:06:41.324Z,8.95
2018-05-04T01:09:08.739Z,8.94
2018-05-04T01:11:36.153Z,8.96
2018-05-04T01:14:03.572Z,8.93
2018-05-04T01:16:30.976Z,8.93
2018-05-04T01:18:58.393Z,8.95
2018-05-04T01:21:25.791Z,8.93
2018-05-04T01:23:53.231Z,8.89
2018-05-04T01:26:20.603Z,8.89
2018-05-04T01:28:48.000Z,8.90
2018-05-04T01:31:15.413Z,8.85
2018-05-04T01:33:42.822Z,8.81
2018-05-04T01:36:10.235Z,8.80
2018-05-04T01:38:37.653Z,8.78
2018-05-04T01:41:05.048Z,8.79
2018-05-04T01:43:32.469Z,8.77
2018-05-04T01:45:59.873Z,8.76
2018-05-04T01:48:27.303Z,8.72
2018-05-04T01:50:54.701Z,8.66
2018-05-04T01:53:22.108Z,8.64
2018-05-04T01:55:49.515Z,8.59
2018-05-04T01:58:16.915Z,8.58
2018-05-04T02:00:44.340Z,8.56
2018-05-04T02:03:11.764Z,8.55
2018-05-04T02:05:39.167Z,8.52
2018-05-04T02:08:06.590Z,8.48
2018-05-04T02:10:33.992Z,8.41
2018-05-04T02:13:01.404Z,8.32
2018-05-04T02:15:28.825Z,8.22
2018-05-04T02:17:56.223Z,8.17
2018-05-04T02:20:23.636Z,8.13
2018-05-04T02:22:51.035Z,8.04
2018-05-04T02:25:18.444Z,8.00
2018-05-04T02:27:45.855Z,7.96
2018-05-04T02:30:13.287Z,7.91
2018-05-04T02:32:40.693Z,7.84
2018-05-04T02:35:08.116Z,7.77
2018-05-04T02:37:35.525Z,7.74
2018-05-04T02:40:02.929Z,7.68
2018-05-04T02:42:30.344Z,7.64
2018-05-04T02:44:57.809Z,7.60
2018-05-04T02:47:25.228Z,7.58
2018-05-04T02:49:52.632Z,7.54
2018-05-04T02:52:20.136Z,7.48
2018-05-04T02:54:47.543Z,7.41
2018-05-04T02:57:14.952Z,7.42
2018-05-04T02:59:42.375Z,7.41
2018-05-04T03:02:09.776Z,7.41
2018-05-04T03:04:37.189Z,7.40
2018-05-04T03:07:04.588Z,7.37
2018-05-04T03:09:31.999Z,7.32
2018-05-04T03:11:59.411Z,7.29
2018-05-04T03:14:26.799Z,7.28
2018-05-04T03:16:54.218Z,7.28
2018-05-04T03:19:21.617Z,7.30
2018-05-04T03:21:49.032Z,7.31
2018-05-04T03:24:16.441Z,7.31
2018-05-04T03:26:43.858Z,7.26
2018-05-04T03:29:11.264Z,7.21
2018-05-04T03:31:38.667Z,7.20
2018-05-04T03:34:06.097Z,7.20
2018-05-04T03:36:33.495Z,7.20
2018-05-04T03:39:00.920Z,7.19
2018-05-04T03:41:28.321Z,7.19
2018-05-04T03:43:55.740Z,7.19
2018-05-04T03:46:23.160Z,7.19
2018-05-04T03:48:50.559Z,7.20
2018-05-04T03:51:17.984Z,7.23
2018-05-04T03:53:45.388Z,7.28
2018-05-04T03:56:12.790Z,7.32
2018-05-04T03:58:52.024Z,7.37
2018-05-04T04:01:31.165Z,7.43
2018-05-04T04:04:15.197Z,7.46
2018-05-04T04:06:42.599Z,7.47
2018-05-04T04:09:10.012Z,7.48
2018-05-04T04:11:37.431Z,7.48
2018-05-04T04:14:04.836Z,7.49
2018-05-04T04:16:32.256Z,7.49
2018-05-04T04:18:59.664Z,7.48
2018-05-04T04:21:27.072Z,7.44
2018-05-04T04:23:54.480Z,7.44
2018-05-04T04:26:21.892Z,7.45
2018-05-04T04:28:49.311Z,7.49
2018-05-04T04:31:16.724Z,7.57
2018-05-04T04:33:44.144Z,7.90
2018-05-04T04:36:11.540Z,8.40
2018-05-04T04:38:39.207Z,8.94
2018-05-04T04:41:06.615Z,9.48
2018-05-04T04:43:34.019Z,9.99
2018-05-04T04:46:01.453Z,10.44
2018-05-04T04:48:28.855Z,10.77
2018-05-04T04:50:56.264Z,11.22
2018-05-04T04:53:23.675Z,11.78
2018-05-04T04:55:51.077Z,12.40
2018-05-04T04:58:18.496Z,12.95
2018-05-04T05:00:45.899Z,13.44
2018-05-04T05:03:13.320Z,14.06
2018-05-04T05:05:40.765Z,14.45
2018-05-04T05:08:08.164Z,14.92
2018-05-04T05:10:35.559Z,15.43
2018-05-04T05:13:02.981Z,15.89
2018-05-04T05:15:30.387Z,16.24
2018-05-04T05:17:57.817Z,16.80
2018-05-04T05:20:25.211Z,17.28
2018-05-04T05:22:52.613Z,17.78
2018-05-04T05:25:20.041Z,18.20
2018-05-04T05:27:47.444Z,18.53
2018-05-04T05:30:14.869Z,18.89
2018-05-04T05:32:42.276Z,19.03
2018-05-04T05:35:09.700Z,19.23
2018-05-04T05:37:37.124Z,19.08
2018-05-04T05:40:04.595Z,19.27
2018-05-04T05:42:32.024Z,19.66
2018-05-04T05:44:59.456Z,19.91
2018-05-04T05:47:26.875Z,20.03
2018-05-04T05:49:54.310Z,20.14
2018-05-04T05:52:21.708Z,20.38
2018-05-04T05:54:49.121Z,20.36
2018-05-04T05:57:16.663Z,20.38
2018-05-04T05:59:44.093Z,20.55
2018-05-04T06:02:11.536Z,20.92
2018-05-04T06:04:38.946Z,21.12
2018-05-04T06:07:06.381Z,21.47
2018-05-04T06:09:33.853Z,21.49
2018-05-04T06:12:01.254Z,21.63
2018-05-04T06:14:28.673Z,21.85
2018-05-04T06:16:56.085Z,22.08
2018-05-04T06:19:23.519Z,22.27
2018-05-04T06:21:50.931Z,22.53
2018-05-04T06:24:18.364Z,22.62
2018-05-04T06:26:45.792Z,22.66
2018-05-04T06:29:13.203Z,22.86
2018-05-04T06:31:40.989Z,23.08
2018-05-04T06:34:08.396Z,23.32
2018-05-04T06:36:35.816Z,23.38
2018-05-04T06:39:03.239Z,23.01
2018-05-04T06:41:30.648Z,23.19
2018-05-04T06:43:58.068Z,22.83
2018-05-04T06:46:25.483Z,22.70
2018-05-04T06:48:52.953Z,22.75
2018-05-04T06:51:20.373Z,22.62
2018-05-04T06:53:47.779Z,22.83
2018-05-04T06:56:15.201Z,22.85
2018-05-04T06:58:42.612Z,22.84
2018-05-04T07:01:10.033Z,22.64
2018-05-04T07:03:37.438Z,22.77
2018-05-04T07:06:04.842Z,22.88
2018-05-04T07:08:32.617Z,22.89
2018-05-04T07:11:00.018Z,22.90
2018-05-04T07:13:27.429Z,22.71
2018-05-04T07:15:54.853Z,22.56
2018-05-04T07:18:22.281Z,22.64
2018-05-04T07:20:49.699Z,22.86
2018-05-04T07:23:17.125Z,22.91
2018-05-04T07:25:44.691Z,23.11
2018-05-04T07:28:12.098Z,23.08
2018-05-04T07:30:39.501Z,23.05
2018-05-04T07:33:06.916Z,23.39
2018-05-04T07:35:34.322Z,23.56
2018-05-04T07:38:02.044Z,23.21
2018-05-04T07:40:29.439Z,23.16
2018-05-04T07:42:56.844Z,23.56
2018-05-04T07:45:24.272Z,23.34
2018-05-04T07:47:51.667Z,22.90
2018-05-04T07:50:19.103Z,23.17
2018-05-04T07:52:46.548Z,23.27
2018-05-04T07:55:14.062Z,23.43
2018-05-04T07:57:41.454Z,23.82
2018-05-04T08:00:08.864Z,23.92
2018-05-04T08:02:36.293Z,23.85
2018-05-04T08:05:03.693Z,24.03
2018-05-04T08:07:31.112Z,24.18
2018-05-04T08:09:58.540Z,24.18
2018-05-04T08:12:25.944Z,24.01
2018-05-04T08:14:53.363Z,23.89
2018-05-04T08:17:20.784Z,23.83
2018-05-04T08:19:48.199Z,23.88
2018-05-04T08:22:15.616Z,24.00
2018-05-04T08:24:43.040Z,24.02
2018-05-04T08:29:44.348Z,23.31
2018-05-04T08:32:11.786Z,23.45
2018-05-04T08:34:39.189Z,23.45
2018-05-04T08:37:06.611Z,23.30
2018-05-04T08:39:34.028Z,23.37
2018-05-04T08:42:01.445Z,23.12
2018-05-04T08:44:28.879Z,22.97
2018-05-04T08:46:56.391Z,22.93
2018-05-04T08:49:23.734Z,22.83
2018-05-04T08:51:51.153Z,22.49
2018-05-04T08:54:18.602Z,22.21
2018-05-04T08:56:45.999Z,22.22
2018-05-04T08:59:13.403Z,21.93
2018-05-04T09:01:40.824Z,21.80
2018-05-04T09:04:08.234Z,21.98
2018-05-04T09:06:35.656Z,21.99
2018-05-04T09:09:03.076Z,22.05
2018-05-04T09:11:30.668Z,22.15
2018-05-04T09:13:58.100Z,22.22
2018-05-04T09:16:25.503Z,22.70
2018-05-04T09:18:52.943Z,23.17
2018-05-04T09:21:20.362Z,23.31
2018-05-04T09:23:47.768Z,23.40
2018-05-04T09:26:15.187Z,23.22
2018-05-04T09:28:42.633Z,23.12
2018-05-04T09:31:10.049Z,23.39
2018-05-04T09:33:37.467Z,23.71
2018-05-04T09:36:04.884Z,23.80
2018-05-04T09:38:32.302Z,23.77
2018-05-04T09:40:59.733Z,24.18
2018-05-04T09:43:27.225Z,24.29
2018-05-04T09:45:54.560Z,24.44
2018-05-04T09:48:21.968Z,24.07
2018-05-04T09:50:49.411Z,23.51
2018-05-04T09:53:16.828Z,22.91
2018-05-04T09:55:44.229Z,22.41
2018-05-04T09:58:11.653Z,21.78
2018-05-04T10:00:39.120Z,21.20
2018-05-04T10:03:06.521Z,20.83
2018-05-04T10:05:33.922Z,20.54
2018-05-04T10:08:01.692Z,20.40
2018-05-04T10:10:29.092Z,20.31
2018-05-04T10:12:56.497Z,20.22
2018-05-04T10:15:23.911Z,20.16
2018-05-04T10:17:51.310Z,20.07
2018-05-04T10:20:18.707Z,19.90
2018-05-04T10:22:46.122Z,19.90
2018-05-04T10:25:13.579Z,19.72
2018-05-04T10:27:41.252Z,19.80
2018-05-04T10:30:08.647Z,19.71
2018-05-04T10:32:36.047Z,19.70
2018-05-04T10:35:03.472Z,19.80
2018-05-04T10:37:30.871Z,19.71
2018-05-04T10:39:58.267Z,19.70
2018-05-04T10:42:25.683Z,19.66
2018-05-04T10:44:53.099Z,19.71
2018-05-04T10:47:20.497Z,19.75
2018-05-04T10:49:47.913Z,19.69
2018-05-04T10:52:15.334Z,19.69
2018-05-04T10:54:42.736Z,19.57
2018-05-04T10:57:10.232Z,19.44
2018-05-04T10:59:37.556Z,19.22
2018-05-04T11:02:04.984Z,19.40
2018-05-04T11:04:32.392Z,19.46
2018-05-04T11:06:59.785Z,19.49
2018-05-04T11:09:27.234Z,19.46
2018-05-04T11:11:54.772Z,19.19
2018-05-04T11:14:22.089Z,19.36
2018-05-04T11:16:49.503Z,19.25
2018-05-04T11:19:16.943Z,19.49
2018-05-04T11:21:44.346Z,19.45
2018-05-04T11:24:11.767Z,19.60
2018-05-04T11:26:39.167Z,19.69
2018-05-04T11:29:06.618Z,19.78
2018-05-04T11:31:34.021Z,19.86
2018-05-04T11:34:01.411Z,19.88
2018-05-04T11:36:28.973Z,20.02
2018-05-04T11:38:56.447Z,19.80
2018-05-04T11:41:23.786Z,19.70
2018-05-04T11:43:51.207Z,19.74
2018-05-04T11:46:18.616Z,19.74
2018-05-04T11:48:46.039Z,19.65
2018-05-04T11:51:13.472Z,19.68
2018-05-04T11:53:40.916Z,19.52
2018-05-04T11:56:08.359Z,19.55
2018-05-04T11:58:35.788Z,19.37
2018-05-04T12:01:03.196Z,19.40
2018-05-04T12:03:30.604Z,19.31
2018-05-04T12:05:58.031Z,19.36
2018-05-04T12:08:25.466Z,19.53
2018-05-04T12:10:52.928Z,19.15
2018-05-04T12:13:20.288Z,19.15
2018-05-04T12:15:47.707Z,19.33
2018-05-04T12:18:15.108Z,19.35
2018-05-04T12:20:42.544Z,19.57
2018-05-04T12:23:09.963Z,19.63
2018-05-04T12:25:37.384Z,19.57
2018-05-04T12:28:04.799Z,19.51
2018-05-04T12:30:32.332Z,19.48
2018-05-04T12:32:59.624Z,19.50
2018-05-04T12:35:27.056Z,19.36
2018-05-04T12:37:54.461Z,19.31
2018-05-04T12:40:21.899Z,19.46
2018-05-04T12:42:49.308Z,19.51
2018-05-04T12:45:16.716Z,19.55
2018-05-04T12:47:44.145Z,19.57
2018-05-04T12:50:11.578Z,19.60
2018-05-04T12:52:38.989Z,19.53
2018-05-04T12:55:06.396Z,19.54
2018-05-04T12:57:33.806Z,19.59
2018-05-04T13:00:01.227Z,19.67
2018-05-04T13:02:28.631Z,19.49
2018-05-04T13:04:56.051Z,19.58
2018-05-04T13:07:23.451Z,19.64
2018-05-04T13:09:50.895Z,19.60
2018-05-04T13:12:18.292Z,19.69
2018-05-04T13:14:45.696Z,19.64
2018-05-04T13:17:13.135Z,19.59
2018-05-04T13:19:40.548Z,19.51
2018-05-04T13:22:07.993Z,19.62
2018-05-04T13:24:35.419Z,19.40
2018-05-04T13:27:02.838Z,19.42
2018-05-04T13:34:18.868Z,19.47
2018-05-04T13:36:46.291Z,19.53
2018-05-04T13:39:13.783Z,19.49
2018-05-04T13:41:41.234Z,19.31
2018-05-04T13:44:08.666Z,19.29
2018-05-04T13:46:36.080Z,19.39
2018-05-04T13:49:03.493Z,19.36
2018-05-04T13:51:31.054Z,19.42
2018-05-04T13:53:58.480Z,19.41
2018-05-04T13:56:25.883Z,19.38
2018-05-04T13:58:53.309Z,19.44
2018-05-04T14:01:20.782Z,19.54
2018-05-04T14:03:48.250Z,19.64
2018-05-04T14:06:15.728Z,19.66
2018-05-04T14:08:43.275Z,19.69
2018-05-04T14:11:10.725Z,19.70
2018-05-04T14:13:38.232Z,19.61
2018-05-04T14:16:06.023Z,19.70
2018-05-04T14:18:33.839Z,19.62
2018-05-04T14:21:02.894Z,19.69
2018-05-04T14:23:30.416Z,19.73
2018-05-04T14:25:57.880Z,19.75
2018-05-04T14:28:25.556Z,19.78
2018-05-04T14:30:53.058Z,19.81
2018-05-04T14:33:20.668Z,19.75
2018-05-04T14:35:48.224Z,19.78
2018-05-04T14:38:15.969Z,19.81
2018-05-04T14:40:43.541Z,19.82
2018-05-04T14:43:11.163Z,19.58
2018-05-04T14:45:38.628Z,19.64
2018-05-04T14:48:06.066Z,19.69
2018-05-04T14:50:33.690Z,19.74
2018-05-04T14:53:01.288Z,19.68
2018-05-04T14:55:28.784Z,19.66
2018-05-04T14:57:56.414Z,19.68
2018-05-04T15:00:23.911Z,19.84
2018-05-04T15:02:52.012Z,19.90
2018-05-04T15:05:19.492Z,19.89
2018-05-04T15:07:46.969Z,19.86
2018-05-04T15:10:14.559Z,19.89
2018-05-04T15:12:42.437Z,19.75
2018-05-04T15:15:10.774Z,19.85
2018-05-04T15:17:38.472Z,19.86
2018-05-04T15:20:06.383Z,19.86
2018-05-04T15:22:33.906Z,19.87
2018-05-04T15:25:02.111Z,19.88
2018-05-04T15:27:30.502Z,19.85
2018-05-04T15:29:58.012Z,19.80
2018-05-04T15:32:25.493Z,19.89
2018-05-04T15:34:53.159Z,19.96
2018-05-04T15:37:20.642Z,19.85
2018-05-04T15:39:48.527Z,19.87
2018-05-04T15:42:17.071Z,19.86
2018-05-04T15:44:44.665Z,19.76
2018-05-04T15:47:12.447Z,19.76
2018-05-04T15:49:40.926Z,19.75
2018-05-04T15:52:10.552Z,19.70
2018-05-04T15:54:38.058Z,19.66
2018-05-04T15:57:07.080Z,19.71
2018-05-04T15:59:34.565Z,19.77
2018-05-04T16:02:01.964Z,19.82
2018-05-04T16:04:29.701Z,19.84
2018-05-04T16:06:57.126Z,19.69
2018-05-04T16:09:24.820Z,19.63
2018-05-04T16:11:52.219Z,19.52
2018-05-04T16:14:19.632Z,19.60
2018-05-04T16:16:47.084Z,19.71
2018-05-04T16:19:14.485Z,19.70
2018-05-04T16:21:41.900Z,19.71
2018-05-04T16:24:09.311Z,19.75
2018-05-04T16:26:36.728Z,19.61
2018-05-04T16:29:04.144Z,19.60
2018-05-04T16:31:31.554Z,19.66
2018-05-04T16:33:58.968Z,19.68
2018-05-04T16:36:26.419Z,19.72
2018-05-04T16:38:53.824Z,19.65
2018-05-04T16:41:21.236Z,19.69
2018-05-04T16:43:48.659Z,19.70
2018-05-04T16:46:21.674Z,19.69
2018-05-04T16:48:54.777Z,19.65
2018-05-04T16:51:22.179Z,19.55
2018-05-04T16:53:49.592Z,19.51
2018-05-04T16:56:17.352Z,19.56
2018-05-04T16:58:44.765Z,19.57
2018-05-04T17:01:12.169Z,19.63
2018-05-04T17:03:39.583Z,19.55
2018-05-04T17:06:06.993Z,19.48
2018-05-04T17:08:34.415Z,19.35
2018-05-04T17:11:01.821Z,19.38
2018-05-04T17:13:29.236Z,19.29
2018-05-04T17:15:56.976Z,19.26
2018-05-04T17:18:24.340Z,19.22
2018-05-04T17:20:51.758Z,19.18
2018-05-04T17:23:19.186Z,19.13
2018-05-04T17:25:46.604Z,19.07
2018-05-04T17:28:14.024Z,19.09
2018-05-04T17:30:41.433Z,19.07
2018-05-04T17:33:09.028Z,19.09
2018-05-04T17:35:36.486Z,19.05
2018-05-04T17:38:03.947Z,18.96
2018-05-04T17:40:31.430Z,18.93
2018-05-04T17:42:58.763Z,18.95
2018-05-04T17:45:26.176Z,19.00
2018-05-04T17:47:53.828Z,18.94
2018-05-04T17:50:21.228Z,18.86
2018-05-04T17:52:48.633Z,18.89
2018-05-04T17:55:16.052Z,18.89
2018-05-04T17:57:43.452Z,18.86
2018-05-04T18:00:10.852Z,18.84
2018-05-04T18:02:38.771Z,18.77
2018-05-04T18:05:06.175Z,18.68
2018-05-04T18:07:33.576Z,18.65
2018-05-04T18:10:00.996Z,18.56
2018-05-04T18:12:28.404Z,18.55
2018-05-04T18:14:55.832Z,18.51
2018-05-04T18:17:23.334Z,18.49
2018-05-04T18:19:50.642Z,18.40
2018-05-04T18:22:18.070Z,18.34
2018-05-04T18:24:45.472Z,18.23
2018-05-04T18:27:12.876Z,18.18
2018-05-04T18:29:40.320Z,18.09
2018-05-04T18:32:07.724Z,17.96
2018-05-04T18:34:35.148Z,17.87
2018-05-04T18:37:02.554Z,17.83
2018-05-04T18:39:29.975Z,17.81
2018-05-04T18:41:57.379Z,17.74
2018-05-04T18:44:24.792Z,17.64
2018-05-04T18:46:52.203Z,17.55
2018-05-04T18:49:19.668Z,17.50
2018-05-04T18:51:47.014Z,17.46
2018-05-04T18:54:14.498Z,17.39
2018-05-04T18:56:41.895Z,17.33
2018-05-04T18:59:09.312Z,17.25
2018-05-04T19:01:36.728Z,17.21
2018-05-04T19:04:04.137Z,17.18
2018-05-04T19:06:31.553Z,17.08
2018-05-04T19:08:58.959Z,16.99
2018-05-04T19:11:26.380Z,16.96
2018-05-04T19:13:53.808Z,16.90
2018-05-04T19:16:21.203Z,16.81
2018-05-04T19:18:48.647Z,16.76
2018-05-04T19:21:16.058Z,16.72
2018-05-04T19:23:43.476Z,16.58
2018-05-04T19:26:11.556Z,16.52
2018-05-04T19:28:38.956Z,16.44
2018-05-04T19:31:06.366Z,16.40
2018-05-04T19:33:33.787Z,16.38
2018-05-04T19:38:51.460Z,16.26
2018-05-04T19:41:18.873Z,16.21
2018-05-04T19:43:46.288Z,16.17
2018-05-04T19:46:13.699Z,16.11
2018-05-04T19:48:41.105Z,16.05
2018-05-04T19:51:08.508Z,16.00
2018-05-04T19:53:35.927Z,15.93
2018-05-04T19:56:03.343Z,15.88
2018-05-04T19:58:30.837Z,15.82
2018-05-04T20:00:58.310Z,15.76
2018-05-04T20:03:25.665Z,15.69
2018-05-04T20:05:54.054Z,15.63
2018-05-04T20:08:21.463Z,15.58
2018-05-04T20:10:48.871Z,15.54
2018-05-04T20:13:16.296Z,15.47
2018-05-04T20:15:43.721Z,15.44
2018-05-04T20:18:11.116Z,15.41
2018-05-04T20:20:38.545Z,15.35
2018-05-04T20:23:06.068Z,15.28
2018-05-04T20:25:33.472Z,15.24
2018-05-04T20:28:00.913Z,15.17
2018-05-04T20:30:28.729Z,15.15
2018-05-04T20:32:56.241Z,15.10
2018-05-04T20:35:23.642Z,15.05
2018-05-04T20:37:51.376Z,15.00
2018-05-04T20:40:18.787Z,14.95
2018-05-04T20:42:46.428Z,14.90
2018-05-04T20:45:14.181Z,14.86
2018-05-04T20:47:41.784Z,14.82
2018-05-04T20:50:09.358Z,14.76
2018-05-04T20:52:36.941Z,14.69
2018-05-04T20:55:05.008Z,14.62
2018-05-04T20:57:33.800Z,14.56
2018-05-04T21:00:01.344Z,14.51
2018-05-04T21:02:29.175Z,14.46
2018-05-04T21:04:56.687Z,14.43
2018-05-04T21:07:25.425Z,14.40
2018-05-04T21:09:53.158Z,14.35
2018-05-04T21:12:21.712Z,14.31
2018-05-04T21:14:50.587Z,14.26
2018-05-04T21:17:19.338Z,14.17
2018-05-04T21:19:47.141Z,14.10
2018-05-04T21:22:14.754Z,14.02
2018-05-04T21:24:42.432Z,13.92
2018-05-04T21:27:09.923Z,13.83
2018-05-04T21:29:37.691Z,13.78
2018-05-04T21:32:05.355Z,13.73
2018-05-04T21:34:33.135Z,13.68
2018-05-04T21:37:00.869Z,13.60
2018-05-04T21:39:28.481Z,13.60
2018-05-04T21:41:56.016Z,13.60
2018-05-04T21:44:23.482Z,13.59
2018-05-04T21:46:51.141Z,13.56
2018-05-04T21:49:19.791Z,13.53
2018-05-04T21:51:47.359Z,13.49
2018-05-04T21:54:14.732Z,13.48
2018-05-04T21:56:42.160Z,13.46
2018-05-04T21:59:09.722Z,13.42
2018-05-04T22:01:37.287Z,13.36
2018-05-04T22:04:04.823Z,13.32
2018-05-04T22:06:32.380Z,13.31
2018-05-04T22:08:59.831Z,13.28
2018-05-04T22:11:27.276Z,13.27
2018-05-04T22:13:54.672Z,13.26
2018-05-04T22:16:22.125Z,13.26
2018-05-04T22:18:50.147Z,13.19
2018-05-04T22:21:17.550Z,13.15
2018-05-04T22:23:44.996Z,13.12
2018-05-04T22:26:12.400Z,13.10
2018-05-04T22:28:39.829Z,13.09
2018-05-04T22:31:07.251Z,13.08
2018-05-04T22:33:34.663Z,13.04
2018-05-04T22:36:02.072Z,13.03
2018-05-04T22:38:29.501Z,12.98
2018-05-04T22:40:56.917Z,12.92
2018-05-04T22:43:24.358Z,12.88
2018-05-04T22:45:51.776Z,12.84
2018-05-04T22:48:19.192Z,12.82
2018-05-04T22:50:46.597Z,12.79
2018-05-04T22:53:14.009Z,12.75
2018-05-04T22:55:41.418Z,12.72
2018-05-04T22:58:08.827Z,12.68
2018-05-04T23:00:36.223Z,12.64
2018-05-04T23:03:03.648Z,12.58
2018-05-04T23:05:31.061Z,12.53
2018-05-04T23:07:58.467Z,12.49
2018-05-04T23:10:25.897Z,12.46
2018-05-04T23:12:53.297Z,12.45
2018-05-04T23:15:20.772Z,12.41
2018-05-04T23:17:48.213Z,12.40
2018-05-04T23:20:15.636Z,12.37
2018-05-04T23:22:43.132Z,12.35
2018-05-04T23:25:10.634Z,12.30
2018-05-04T23:27:38.072Z,12.25
2018-05-04T23:30:05.560Z,12.20
2018-05-04T23:32:33.022Z,12.17
2018-05-04T23:35:00.436Z,12.13
2018-05-04T23:37:27.867Z,11.98
2018-05-04T23:39:55.269Z,11.98
2018-05-04T23:42:22.684Z,11.99
2018-05-04T23:44:50.092Z,11.98
2018-05-04T23:47:17.513Z,11.96
2018-05-04T23:49:44.918Z,11.90
2018-05-04T23:52:12.665Z,11.83
2018-05-04T23:54:40.087Z,11.80
2018-05-04T23:57:07.488Z,11.78
2018-05-04T23:59:34.908Z,11.75
